Data for 11/18/2010

Time Sea-Level Adjusted Pressure Absolute Pressure Temperature Relative Humidity Dew Point   
(mb) (inHg) (mb) (inHg) (C) (F) (%) (C) (F)
00:05 1012 29.88 841 24.83 5.9 42.6 39 -7.1 19.2
00:10 1012 29.88 841 24.83 6.1 42.9 39 -7 19.4
00:15 1012 29.88 841 24.83 6.2 43.2 36 -7.8 18
00:20 1012 29.88 841 24.83 6.6 43.9 36 -7.4 18.6
00:25 1012 29.88 841 24.83 6.5 43.6 37 -7.3 18.9
00:30 1012 29.88 841 24.83 6.6 43.8 34 -8.3 17.1
00:35 1012 29.88 841 24.83 6.9 44.4 35 -7.4 18.7
00:40 1012 29.88 841 24.83 6.8 44.2 41 -5.7 21.8
00:45 1012 29.88 841 24.83 5.8 42.4 47 -4.8 23.4
00:50 1012 29.88 841 24.83 5.3 41.6 43 -6.2 20.8
00:55 1012 29.88 841 24.83 5.2 41.4 43 -6.5 20.3
01:00 1012 29.88 841 24.83 5.5 42 39 -7.3 18.8
01:05 1012 29.88 841 24.83 6.2 43.2 35 -8 17.5
01:10 1011 29.85 841 24.83 7.1 44.8 38 -6.2 20.9
01:15 1012 29.88 841 24.83 6.2 43.1 39 -6.7 20
01:20 1011 29.85 841 24.83 6.1 43 37 -7.5 18.6
01:25 1011 29.85 840 24.81 6.5 43.6 39 -6.4 20.5
01:30 1011 29.85 840 24.81 6 42.8 42 -5.9 21.3
01:35 1011 29.85 840 24.81 5.4 41.7 41 -6.7 19.9
01:40 1011 29.85 840 24.81 5.7 42.3 41 -6.6 20.1
01:45 1011 29.85 840 24.81 6 42.8 40 -6.6 20.2
01:50 1011 29.85 840 24.81 6.2 43.1 40 -6.6 20.1
01:55 1011 29.85 840 24.81 6.5 43.7 40 -6.1 21.1
02:00 1011 29.85 840 24.81 6.3 43.4 41 -6.1 21.1
02:05 1011 29.85 840 24.81 6.4 43.5 40 -6.2 20.8
02:10 1011 29.85 840 24.81 6.4 43.5 38 -6.8 19.8
02:15 1011 29.85 840 24.81 6.9 44.5 34 -7.8 18
02:20 1011 29.85 840 24.81 7.5 45.4 32 -8.3 17.1
02:25 1011 29.85 840 24.81 7.5 45.5 34 -7.4 18.7
02:30 1011 29.85 840 24.81 7.3 45.1 34 -7.7 18.2
02:35 1011 29.85 840 24.81 7.1 44.8 33 -8 17.6
02:40 1011 29.85 840 24.81 7.5 45.4 35 -7 19.4
02:45 1011 29.85 840 24.81 7.2 45 35 -7.3 18.9
02:50 1010 29.83 840 24.81 7.2 45 36 -7 19.4
02:55 1010 29.83 840 24.81 7.1 44.9 33 -8.2 17.3
03:00 1010 29.83 840 24.81 7.5 45.4 35 -6.9 19.7
03:05 1010 29.83 840 24.81 7.2 44.9 37 -6.5 20.2
03:10 1010 29.83 839 24.78 7.1 44.8 36 -6.8 19.7
03:15 1010 29.83 839 24.78 7.1 44.7 37 -6.7 19.9
03:20 1010 29.83 839 24.78 7.2 45 36 -6.9 19.6
03:25 1010 29.83 839 24.78 7.3 45.2 35 -7.3 18.9
03:30 1010 29.83 839 24.78 7.3 45.2 36 -6.8 19.8
03:35 1010 29.83 839 24.78 7.3 45.2 37 -6.5 20.3
03:40 1010 29.83 839 24.78 7.1 44.8 37 -6.7 19.9
03:45 1010 29.83 839 24.78 7.3 45.2 37 -6.6 20.2
03:50 1009 29.8 839 24.78 7.2 45 35 -7.1 19.1
03:55 1009 29.8 838 24.75 7.4 45.2 36 -6.8 19.7
04:00 1009 29.8 838 24.75 7.2 45 34 -7.7 18.2
04:05 1009 29.8 838 24.75 7.5 45.5 34 -7.4 18.6
04:10 1009 29.8 838 24.75 7.5 45.5 35 -7 19.3
04:15 1009 29.8 838 24.75 7.4 45.3 34 -7.6 18.3
04:20 1009 29.8 838 24.75 7.5 45.4 35 -7.1 19.2
04:25 1009 29.8 838 24.75 7.3 45.1 33 -7.9 17.8
04:30 1009 29.8 838 24.75 7.4 45.4 34 -7.5 18.5
04:35 1009 29.8 838 24.75 7.2 44.9 35 -7.4 18.8
04:40 1009 29.8 838 24.75 7 44.6 37 -6.9 19.6
04:45 1009 29.8 838 24.75 6.9 44.4 37 -6.9 19.7
04:50 1009 29.8 838 24.75 6.7 44.1 37 -7 19.4
04:55 1009 29.8 838 24.75 6.7 44.1 37 -7.1 19.2
05:00 1009 29.8 838 24.75 6.7 44.1 37 -7 19.5
05:05 1009 29.8 838 24.75 6.7 44 37 -7.1 19.2
05:10 1009 29.8 838 24.75 6.6 43.9 38 -6.7 20
05:15 1009 29.8 838 24.75 6.3 43.4 40 -6.4 20.4
05:20 1008 29.77 838 24.75 6.3 43.4 39 -6.6 20.1
05:25 1008 29.77 838 24.75 6.3 43.3 39 -6.7 19.9
05:30 1008 29.77 838 24.75 5.8 42.5 42 -6.2 20.9
05:35 1008 29.77 838 24.75 5.4 41.7 41 -6.9 19.6
05:40 1008 29.77 837 24.72 5.4 41.7 43 -6.3 20.6
05:45 1008 29.77 837 24.72 5.4 41.7 40 -7 19.4
05:50 1008 29.77 837 24.72 5.6 42 40 -7 19.3
05:55 1008 29.77 837 24.72 5.7 42.2 39 -7.2 19
06:00 1008 29.77 837 24.72 5.8 42.4 40 -6.9 19.6
06:05 1008 29.77 837 24.72 5.8 42.4 41 -6.5 20.3
06:10 1008 29.77 837 24.72 5.9 42.7 35 -8.4 16.9
06:15 1008 29.77 837 24.72 6.7 44.1 33 -8.4 16.9
06:20 1008 29.77 837 24.72 7.1 44.7 32 -8.5 16.7
06:25 1008 29.77 837 24.72 7.2 44.9 32 -8.6 16.6
06:30 1008 29.77 837 24.72 7.1 44.8 31 -9.1 15.6
06:35 1008 29.77 837 24.72 7.4 45.3 32 -8.3 17.1
06:40 1008 29.77 837 24.72 7.3 45.1 32 -8.3 17
06:45 1008 29.77 837 24.72 7.3 45.1 33 -7.8 18
06:50 1007 29.74 837 24.72 7 44.7 33 -8.1 17.5
06:55 1007 29.74 837 24.72 6.9 44.4 33 -8.3 17
07:00 1007 29.74 836 24.69 7.1 44.8 33 -8.2 17.2
07:05 1007 29.74 836 24.69 7.1 44.8 33 -8.1 17.4
07:10 1007 29.74 836 24.69 7.1 44.7 33 -8.1 17.4
07:15 1007 29.74 836 24.69 7.2 44.9 34 -7.8 17.9
07:20 1007 29.74 836 24.69 7.1 44.8 34 -7.9 17.8
07:25 1007 29.74 836 24.69 7.1 44.8 33 -8.3 17.1
07:30 1007 29.74 836 24.69 7.4 45.3 33 -7.9 17.7
07:35 1007 29.74 836 24.69 7.3 45.2 32 -8.2 17.2
07:40 1006 29.71 836 24.69 7.3 45.2 32 -8.3 17
07:45 1006 29.71 836 24.69 7.3 45.1 31 -8.7 16.3
07:50 1006 29.71 836 24.69 7.4 45.3 31 -8.5 16.6
07:55 1006 29.71 835 24.66 7.6 45.6 31 -8.5 16.7
08:00 1006 29.71 835 24.66 7.6 45.6 30 -9 15.8
08:05 1006 29.71 835 24.66 7.7 45.9 30 -8.8 16.2
08:10 1006 29.71 835 24.66 7.7 45.8 30 -8.8 16.2
08:15 1006 29.71 835 24.66 7.6 45.6 30 -8.9 16
08:20 1006 29.71 835 24.66 7.7 45.8 31 -8.5 16.7
08:25 1006 29.71 835 24.66 7.8 46.1 30 -8.8 16.2
08:30 1006 29.71 835 24.66 7.8 46.1 31 -8.5 16.7
08:35 1006 29.71 835 24.66 7.8 46 28 -9.7 14.5
08:40 1006 29.71 835 24.66 7.9 46.3 28 -9.4 15
08:45 1006 29.71 835 24.66 8.2 46.8 28 -9.3 15.3
08:50 1006 29.71 835 24.66 7.9 46.2 30 -8.7 16.3
08:55 1006 29.71 835 24.66 7.9 46.2 29 -8.9 15.9
09:00 1006 29.71 835 24.66 7.7 45.9 29 -9.4 15
09:05 1006 29.71 835 24.66 7.7 45.9 31 -8.4 16.9
09:10 1005 29.68 835 24.66 7.5 45.4 31 -8.8 16.2
09:15 1005 29.68 835 24.66 7.7 45.9 30 -8.9 16
09:20 1005 29.68 834 24.63 7.8 46.1 32 -7.9 17.8
09:25 1005 29.68 834 24.63 7.7 45.9 29 -9.4 15
09:30 1005 29.68 834 24.63 8.1 46.6 29 -8.7 16.4
09:35 1005 29.68 834 24.63 8.1 46.5 29 -8.9 16
09:40 1005 29.68 834 24.63 8 46.3 29 -9 15.8
09:45 1005 29.68 834 24.63 8 46.4 30 -8.4 16.9
09:50 1005 29.68 834 24.63 7.8 46.1 32 -8 17.5
09:55 1005 29.68 834 24.63 7.9 46.3 29 -8.9 16
10:00 1005 29.68 834 24.63 8 46.4 31 -8.2 17.2
10:05 1005 29.68 834 24.63 8 46.4 31 -7.9 17.7
10:10 1004 29.65 834 24.63 8.2 46.7 30 -8.5 16.7
10:15 1005 29.68 834 24.63 8.3 47 31 -7.8 17.9
10:20 1004 29.65 834 24.63 8.4 47.2 29 -8.5 16.7
10:25 1004 29.65 834 24.63 8.5 47.3 32 -7.4 18.7
10:30 1004 29.65 834 24.63 8.7 47.6 30 -7.8 17.9
10:35 1004 29.65 834 24.63 8.7 47.6 29 -8.4 17
10:40 1004 29.65 834 24.63 9 48.1 28 -8.4 16.9
10:45 1004 29.65 834 24.63 9 48.2 30 -7.8 17.9
10:50 1005 29.68 834 24.63 9.1 48.3 29 -7.8 17.9
10:55 1005 29.68 834 24.63 9.2 48.5 30 -7.6 18.3
11:00 1005 29.68 834 24.63 9.1 48.5 31 -7.2 19
11:05 1005 29.68 834 24.63 9.3 48.8 28 -8.1 17.5
11:10 1005 29.68 834 24.63 9.5 49.2 25 -9.6 14.8
11:15 1004 29.65 834 24.63 10.1 50.3 25 -9 15.9
11:20 1004 29.65 834 24.63 10.3 50.6 23 -10.2 13.6
11:25 1004 29.65 833 24.6 10.5 50.8 24 -9.3 15.2
11:30 1004 29.65 833 24.6 10.2 50.4 24 -9.4 15.1
11:35 1004 29.65 833 24.6 10.1 50.2 25 -9.1 15.7
11:40 1004 29.65 833 24.6 10.3 50.6 23 -9.7 14.6
11:45 1004 29.65 833 24.6 10.5 51 24 -9 15.8
11:50 1004 29.65 833 24.6 10.5 50.9 23 -9.6 14.7
11:55 1004 29.65 833 24.6 10.5 50.9 22 -10.2 13.6
12:00 1004 29.65 833 24.6 10.7 51.3 24 -9.3 15.3
12:05 1004 29.65 833 24.6 10.5 50.9 23 -9.9 14.2
12:10 1004 29.65 833 24.6 10.5 51 25 -8.6 16.5
12:15 1004 29.65 833 24.6 10.5 51 22 -10.1 13.9
12:20 1004 29.65 833 24.6 10.7 51.2 25 -8.7 16.3
12:25 1004 29.65 833 24.6 10.5 50.9 25 -8.7 16.3
12:30 1004 29.65 833 24.6 10.5 50.8 25 -8.6 16.5
12:35 1004 29.65 834 24.63 10.6 51.1 25 -8.7 16.3
12:40 1004 29.65 834 24.63 10.6 51 25 -8.5 16.7
12:45 1004 29.65 834 24.63 10.6 51.2 25 -8.5 16.8
12:50 1004 29.65 834 24.63 10.5 51 24 -9.2 15.5
12:55 1004 29.65 834 24.63 10.6 51 27 -7.8 17.9
13:00 1004 29.65 833 24.6 10.5 51 25 -8.6 16.6
13:05 1004 29.65 833 24.6 10.5 50.8 26 -8.4 16.8
13:10 1004 29.65 833 24.6 10.4 50.7 27 -8 17.5
13:15 1004 29.65 833 24.6 10.5 50.8 26 -8.1 17.3
13:20 1004 29.65 833 24.6 10.3 50.6 27 -8 17.5
13:25 1004 29.65 833 24.6 10 49.9 27 -8 17.5
13:30 1004 29.65 833 24.6 9.7 49.4 26 -8.9 16.1
13:35 1004 29.65 833 24.6 9.9 49.7 26 -8.9 16
13:40 1004 29.65 833 24.6 10.2 50.3 25 -8.8 16.1
13:45 1004 29.65 833 24.6 10.3 50.6 26 -8.2 17.2
13:50 1004 29.65 834 24.63 10.2 50.3 27 -7.8 18
13:55 1004 29.65 834 24.63 10.2 50.4 26 -8.2 17.2
14:00 1004 29.65 834 24.63 10.2 50.3 26 -8.6 16.6
14:05 1004 29.65 834 24.63 10 50 26 -8.5 16.7
14:10 1004 29.65 834 24.63 10 49.9 27 -8.2 17.3
14:15 1004 29.65 834 24.63 9.8 49.6 28 -7.9 17.7
14:20 1004 29.65 834 24.63 9.7 49.4 28 -8.1 17.5
14:25 1004 29.65 834 24.63 9.6 49.2 28 -8 17.7
14:30 1004 29.65 834 24.63 9.5 49.1 29 -7.5 18.6
14:35 1004 29.65 834 24.63 9.5 49 30 -7.4 18.7
14:40 1004 29.65 834 24.63 9.5 49.1 29 -7.5 18.5
14:45 1004 29.65 834 24.63 9.4 48.8 30 -7.2 19
14:50 1005 29.68 834 24.63 9.3 48.8 36 -5 23.1
14:55 1005 29.68 834 24.63 5.7 42.3 55 -2.7 27.1
15:00 1005 29.68 835 24.66 3.4 38.1 60 -3.6 25.5
15:05 1006 29.71 835 24.66 2.6 36.7 61 -4.2 24.4
15:10 1006 29.71 835 24.66 2.6 36.6 60 -4.4 24.2
15:15 1006 29.71 835 24.66 2.6 36.7 60 -4.3 24.2
15:20 1006 29.71 835 24.66 2.5 36.4 60 -4.4 24.1
15:25 1006 29.71 836 24.69 2.4 36.4 61 -4.3 24.3
15:30 1007 29.74 836 24.69 2.4 36.4 61 -4.4 24
15:35 1007 29.74 836 24.69 2.4 36.3 60 -4.5 23.9
15:40 1007 29.74 837 24.72 2.3 36.2 61 -4.5 23.9
15:45 1008 29.77 837 24.72 2.2 36 60 -4.8 23.3
15:50 1008 29.77 837 24.72 2.1 35.8 61 -4.7 23.5
15:55 1008 29.77 837 24.72 2 35.6 61 -4.7 23.5
16:00 1008 29.77 837 24.72 2.1 35.7 61 -4.7 23.5
16:05 1008 29.77 838 24.75 2 35.6 63 -4.4 24.1
16:10 1009 29.8 838 24.75 1.8 35.2 63 -4.6 23.8
16:15 1009 29.8 838 24.75 2 35.6 61 -4.7 23.5
16:20 1009 29.8 838 24.75 1.9 35.4 63 -4.5 23.9
16:25 1009 29.8 838 24.75 1.8 35.2 62 -4.7 23.6
16:30 1009 29.8 838 24.75 1.8 35.2 61 -4.9 23.2
16:35 1009 29.8 839 24.78 1.8 35.3 62 -4.7 23.5
16:40 1010 29.83 839 24.78 1.7 35.1 64 -4.3 24.2
16:45 1010 29.83 839 24.78 1.6 34.9 66 -4.1 24.6
16:50 1009 29.8 839 24.78 1.3 34.3 68 -4 24.7
16:55 1010 29.83 839 24.78 1.4 34.6 68 -3.8 25.2
17:00 1010 29.83 839 24.78 1.3 34.4 71 -3.3 26.1
17:05 1010 29.83 839 24.78 1.1 34.1 75 -2.7 27.1
17:10 1010 29.83 839 24.78 0.5 32.9 82 -2.2 28.1
17:15 1010 29.83 839 24.78 0.3 32.6 80 -2.8 27
17:20 1010 29.83 839 24.78 0.5 32.8 79 -2.8 26.9
17:25 1010 29.83 840 24.81 0.7 33.2 78 -2.7 27.1
17:30 1010 29.83 840 24.81 0.6 33 80 -2.4 27.6
17:35 1010 29.83 840 24.81 0.2 32.4 82 -2.5 27.5
17:40 1011 29.85 840 24.81 0.3 32.6 81 -2.6 27.4
17:45 1011 29.85 840 24.81 0.3 32.6 83 -2.2 28
17:50 1011 29.85 840 24.81 0.3 32.5 83 -2.3 27.8
17:55 1011 29.85 840 24.81 -0.1 31.8 84 -2.5 27.5
18:00 1011 29.85 840 24.81 -0.3 31.5 85 -2.5 27.4
18:05 1011 29.85 840 24.81 -0.5 31.1 85 -2.7 27.2
18:10 1011 29.85 840 24.81 -0.6 31 87 -2.5 27.5
18:15 1011 29.85 840 24.81 -0.5 31.1 86 -2.5 27.4
18:20 1011 29.85 840 24.81 -0.8 30.6 89 -2.4 27.6
18:25 1011 29.85 840 24.81 -0.8 30.5 90 -2.3 27.8
18:30 1011 29.85 840 24.81 -0.8 30.6 89 -2.3 27.8
18:35 1011 29.85 840 24.81 -0.8 30.5 90 -2.3 27.9
18:40 1011 29.85 840 24.81 -0.9 30.4 90 -2.4 27.7
18:45 1011 29.85 840 24.81 -0.9 30.4 89 -2.4 27.6
18:50 1011 29.85 840 24.81 -0.9 30.3 90 -2.3 27.8
18:55 1011 29.85 840 24.81 -0.8 30.5 91 -2.2 28.1
19:00 1011 29.85 840 24.81 -0.8 30.5 90 -2.3 27.9
19:05 1011 29.85 840 24.81 -0.8 30.6 89 -2.4 27.6
19:10 1011 29.85 840 24.81 -0.9 30.4 88 -2.6 27.4
19:15 1011 29.85 841 24.83 -0.9 30.5 88 -2.6 27.4
19:20 1012 29.88 841 24.83 -0.8 30.5 88 -2.5 27.5
19:25 1012 29.88 841 24.83 -0.8 30.5 88 -2.6 27.3
19:30 1012 29.88 841 24.83 -0.9 30.5 88 -2.6 27.3
19:35 1011 29.85 841 24.83 -0.8 30.5 87 -2.7 27.1
19:40 1011 29.85 841 24.83 -1.1 30 89 -2.8 27
19:45 1011 29.85 841 24.83 -1.2 29.8 91 -2.6 27.4
19:50 1012 29.88 841 24.83 -1.3 29.7 91 -2.5 27.4
19:55 1012 29.88 841 24.83 -1.4 29.4 92 -2.6 27.3
20:00 1012 29.88 841 24.83 -1.6 29.1 92 -2.7 27.2
20:05 1012 29.88 841 24.83 -1.7 28.9 93 -2.6 27.3
20:10 1012 29.88 841 24.83 -1.6 29.2 94 -2.4 27.6
20:15 1012 29.88 841 24.83 -1.4 29.5 93 -2.3 27.8
20:20 1012 29.88 842 24.86 -1.3 29.6 93 -2.3 27.9
20:25 1012 29.88 842 24.86 -1.2 29.8 93 -2.2 28.1
20:30 1012 29.88 842 24.86 -1.2 29.9 92 -2.3 27.9
20:35 1012 29.88 841 24.83 -1.3 29.7 93 -2.3 27.9
20:40 1012 29.88 841 24.83 -1.5 29.4 93 -2.4 27.7
20:45 1012 29.88 841 24.83 -1.6 29 94 -2.5 27.5
20:50 1012 29.88 841 24.83 -1.7 28.9 94 -2.6 27.4
20:55 1012 29.88 841 24.83 -1.8 28.8 95 -2.5 27.5
21:00 1012 29.88 841 24.83 -1.8 28.8 95 -2.5 27.6
21:05 1012 29.88 841 24.83 -1.8 28.8 95 -2.4 27.7
21:10 1012 29.88 842 24.86 -1.7 29 95 -2.3 27.8
21:15 1012 29.88 842 24.86 -1.6 29.1 95 -2.3 27.9
21:20 1013 29.91 842 24.86 -1.6 29.2 95 -2.2 28
21:25 1013 29.91 842 24.86 -1.5 29.2 95 -2.3 27.9
21:30 1013 29.91 842 24.86 -1.7 29 95 -2.4 27.7
21:35 1013 29.91 842 24.86 -1.7 28.9 95 -2.4 27.6
21:40 1013 29.91 842 24.86 -1.9 28.6 95 -2.5 27.4
21:45 1013 29.91 842 24.86 -1.9 28.6 96 -2.5 27.5
21:50 1013 29.91 842 24.86 -2 28.5 96 -2.5 27.4
21:55 1013 29.91 842 24.86 -1.9 28.6 96 -2.4 27.6
22:00 1013 29.91 842 24.86 -1.8 28.8 96 -2.3 27.8
22:05 1012 29.88 842 24.86 -1.9 28.5 96 -2.5 27.5
22:10 1012 29.88 842 24.86 -2.1 28.2 96 -2.6 27.3
22:15 1012 29.88 842 24.86 -2.1 28.3 96 -2.6 27.3
22:20 1012 29.88 842 24.86 -2.2 28 96 -2.8 26.9
22:25 1012 29.88 842 24.86 -2.3 27.8 95 -3 26.6
22:30 1012 29.88 842 24.86 -2.5 27.5 96 -3.1 26.4
22:35 1012 29.88 842 24.86 -2.5 27.6 96 -3.1 26.5
22:40 1013 29.91 842 24.86 -2.5 27.6 95 -3.2 26.3
22:45 1013 29.91 842 24.86 -2.5 27.4 95 -3.2 26.2
22:50 1013 29.91 842 24.86 -2.5 27.5 94 -3.3 26.1
22:55 1013 29.91 842 24.86 -2.5 27.5 94 -3.4 25.9
23:00 1013 29.91 842 24.86 -2.5 27.4 93 -3.5 25.7
23:05 1013 29.91 842 24.86 -2.4 27.6 92 -3.5 25.7
23:10 1013 29.91 842 24.86 -2.4 27.6 92 -3.6 25.4
23:15 1013 29.91 842 24.86 -2.5 27.5 92 -3.7 25.4
23:20 1013 29.91 842 24.86 -2.6 27.4 92 -3.8 25.2
23:25 1013 29.91 842 24.86 -2.7 27.2 92 -3.8 25.2
23:30 1013 29.91 842 24.86 -2.7 27.2 92 -3.8 25.1
23:35 1013 29.91 842 24.86 -2.6 27.2 90 -4 24.8
23:40 1013 29.91 842 24.86 -2.6 27.3 89 -4.2 24.5
23:45 1012 29.88 842 24.86 -2.6 27.4 89 -4.2 24.4
23:50 1012 29.88 842 24.86 -2.5 27.4 89 -4.2 24.5
23:55 1012 29.88 842 24.86 -2.5 27.5 89 -4.1 24.6
24:00 1012 29.88 842 24.86 -2.7 27.2 88 -4.5 23.9